Fingal, North Dakota
Current Conditions -  °F | °C
As of 10:15 AM on Wednesday 22 Oct 2014 (Local Time) from KBAC Reporting Station
Clear Clear  
Wind Chill: 55°   Ceiling: Unl
Heat Index: 55°   Visibility: 10mi
Dew Point: 48°   Wind: 13mph
Humidity: 77%   Direction: 180°S
Pressure: 29.83"   Gusts: NA
Location:  46.76°N, 97.79°W
Report Text: KBAC 221515Z AUTO 18011KT 10SM CLR 13/09 A2983 RMK AO2
Loading
Personal Weather Stations






























Interactive Weather Map
Tropical Storm Tracking
New forecast layout! Learn more

10-Day Weather Forecast

Advertisements
Track Severe Weather on mobile